Terminal Aerodrome Forecast
Issued by NWS Charleston, WV

Current Version | Previous Version | Text Only | Print | Product List | Glossary Off
Versions: 1 2 3 4 5 6 7 8 9 10 11 12 13 14 15 16 17 18 19 20 21 22 23 24 25 26 27

000
FTUS41 KRLX 210213 AAB
TAFPKB
TAF AMD
KPKB 210213Z 2102/2124 00000KT P6SM BKN250
      TEMPO 2102/2104 2SM BR
     FM210400 00000KT 2SM BR BKN250
     FM210500 00000KT 1/4SM FG VV001
     FM210700 VRB03KT 3SM BR SCT001
     FM210900 VRB03KT P6SM BKN250
     FM211600 18004KT P6SM SCT025
     FM211900 18004KT P6SM SCT035=

USA.gov is the U.S. government's official web portal to all federal, state and local government web resources and services.